UAL2345 KASE-KDFW
Flight info
| Callsign | UAL2345 |
|---|---|
| Flight time | N/A |
| Altitude | 37000 |
| Route | LINDZ1 LINDZ KEEPP CLIMN MROON HBU ALS PNH MDANO JOVEM6 |
| Aircraft | A320/M-SDE3FGHIRWY/LB1 |
Departure
| Time | 2026-03-24 01:55 |
|---|---|
| Airport | Aspen-Pitkin County Airport (Sardy Field) (KASE) |
Arrival
| Time | N/A |
|---|---|
| Airport | Dallas Fort Worth International Airport (KDFW) |
| Time | Latitude | Longitude | Altitude | Speed | Heading |
|---|---|---|---|---|---|
| 2026-03-24 01:10 | 39.22264 | -106.86629 | 7757 ft | 0 kts | 67° |
| 2026-03-24 01:42 | 39.22262 | -106.86633 | 7757 ft | 2 kts | 70° |
| 2026-03-24 01:43 | 39.22259 | -106.86648 | 7754 ft | 3 kts | 129° |
| 2026-03-24 01:43 | 39.22270 | -106.86655 | 7754 ft | 4 kts | 165° |
| 2026-03-24 01:45 | 39.22268 | -106.86656 | 7756 ft | 0 kts | 175° |
| 2026-03-24 01:45 | 39.22264 | -106.86658 | 7755 ft | 0 kts | 194° |
| 2026-03-24 01:45 | 39.22263 | -106.86659 | 7757 ft | 0 kts | 194° |
| 2026-03-24 01:46 | 39.22258 | -106.86660 | 7758 ft | 2 kts | 194° |
| 2026-03-24 01:46 | 39.22253 | -106.86662 | 7754 ft | 0 kts | 195° |
| 2026-03-24 01:46 | 39.22249 | -106.86665 | 7756 ft | 2 kts | 206° |
| 2026-03-24 01:46 | 39.22245 | -106.86668 | 7758 ft | 0 kts | 206° |
| 2026-03-24 01:47 | 39.22214 | -106.86691 | 7761 ft | 6 kts | 215° |
| 2026-03-24 01:47 | 39.22195 | -106.86701 | 7764 ft | 0 kts | 181° |
| 2026-03-24 01:48 | 39.22185 | -106.86699 | 7765 ft | 5 kts | 165° |
| 2026-03-24 01:48 | 39.22140 | -106.86680 | 7765 ft | 7 kts | 160° |
| 2026-03-24 01:49 | 39.22127 | -106.86674 | 7764 ft | 6 kts | 160° |
| 2026-03-24 01:49 | 39.22099 | -106.86661 | 7766 ft | 3 kts | 160° |
| 2026-03-24 01:50 | 39.22085 | -106.86654 | 7769 ft | 1 kts | 160° |
| 2026-03-24 01:50 | 39.22051 | -106.86638 | 7771 ft | 11 kts | 160° |
| 2026-03-24 01:50 | 39.21963 | -106.86596 | 7783 ft | 12 kts | 160° |
| 2026-03-24 01:50 | 39.21899 | -106.86565 | 7785 ft | 10 kts | 159° |
| 2026-03-24 01:51 | 39.21808 | -106.86522 | 7799 ft | 18 kts | 160° |
| 2026-03-24 01:51 | 39.21678 | -106.86458 | 7810 ft | 19 kts | 159° |
| 2026-03-24 01:51 | 39.21574 | -106.86406 | 7818 ft | 14 kts | 159° |
| 2026-03-24 01:51 | 39.21489 | -106.86365 | 7820 ft | 12 kts | 161° |
| 2026-03-24 01:52 | 39.21412 | -106.86333 | 7825 ft | 10 kts | 162° |
| 2026-03-24 01:52 | 39.21349 | -106.86305 | 7830 ft | 13 kts | 160° |
| 2026-03-24 01:52 | 39.21241 | -106.86253 | 7835 ft | 11 kts | 165° |
| 2026-03-24 01:52 | 39.21224 | -106.86252 | 7837 ft | 0 kts | 184° |
| 2026-03-24 01:54 | 39.21188 | -106.86277 | 7842 ft | 12 kts | 226° |
| 2026-03-24 01:54 | 39.21227 | -106.86366 | 7837 ft | 15 kts | 338° |
| 2026-03-24 01:54 | 39.21951 | -106.86711 | 7784 ft | 128 kts | 339° |
| 2026-03-24 01:55 | 39.22982 | -106.87195 | 7767 ft | 181 kts | 341° |
| 2026-03-24 01:55 | 39.24164 | -106.87712 | 8482 ft | 178 kts | 339° |
| 2026-03-24 01:55 | 39.25329 | -106.88231 | 9217 ft | 172 kts | 324° |
| 2026-03-24 01:55 | 39.26172 | -106.89268 | 9586 ft | 176 kts | 295° |
| 2026-03-24 01:56 | 39.26590 | -106.90839 | 9643 ft | 194 kts | 282° |
| 2026-03-24 01:56 | 39.26858 | -106.92587 | 10000 ft | 201 kts | 279° |
| 2026-03-24 01:56 | 39.27097 | -106.94357 | 10494 ft | 200 kts | 278° |
| 2026-03-24 01:56 | 39.27338 | -106.96131 | 10937 ft | 200 kts | 278° |
| 2026-03-24 01:57 | 39.27587 | -106.97904 | 11345 ft | 202 kts | 279° |
| 2026-03-24 01:57 | 39.28003 | -106.99641 | 11750 ft | 205 kts | 296° |
| 2026-03-24 01:57 | 39.28884 | -107.01111 | 12141 ft | 209 kts | 307° |
| 2026-03-24 01:57 | 39.29844 | -107.02520 | 12589 ft | 210 kts | 307° |
| 2026-03-24 01:58 | 39.30810 | -107.03937 | 13010 ft | 210 kts | 307° |
| 2026-03-24 01:58 | 39.31776 | -107.05355 | 13371 ft | 212 kts | 306° |
| 2026-03-24 01:58 | 39.32784 | -107.06843 | 13619 ft | 230 kts | 306° |
| 2026-03-24 01:58 | 39.33894 | -107.08491 | 13804 ft | 255 kts | 307° |
| 2026-03-24 01:59 | 39.35094 | -107.10270 | 14041 ft | 278 kts | 307° |
| 2026-03-24 01:59 | 39.36417 | -107.12225 | 14244 ft | 300 kts | 307° |
| 2026-03-24 01:59 | 39.37847 | -107.14331 | 14474 ft | 319 kts | 308° |
| 2026-03-24 01:59 | 39.39329 | -107.16500 | 15120 ft | 323 kts | 308° |
| 2026-03-24 02:00 | 39.40727 | -107.18758 | 15855 ft | 321 kts | 297° |
| 2026-03-24 02:00 | 39.41499 | -107.21434 | 16549 ft | 319 kts | 278° |
| 2026-03-24 02:00 | 39.41442 | -107.24302 | 17269 ft | 323 kts | 260° |
| 2026-03-24 02:00 | 39.40540 | -107.26990 | 17968 ft | 334 kts | 240° |
| 2026-03-24 02:01 | 39.38898 | -107.29135 | 18592 ft | 351 kts | 222° |
| 2026-03-24 02:01 | 39.36637 | -107.30503 | 19127 ft | 373 kts | 201° |
| 2026-03-24 02:01 | 39.33975 | -107.30692 | 19524 ft | 398 kts | 177° |
| 2026-03-24 02:01 | 39.31313 | -107.29435 | 19930 ft | 420 kts | 152° |
| 2026-03-24 02:02 | 39.28931 | -107.27193 | 20511 ft | 427 kts | 144° |
| 2026-03-24 02:02 | 39.26646 | -107.24705 | 21032 ft | 433 kts | 141° |
| 2026-03-24 02:02 | 39.24400 | -107.22081 | 21492 ft | 438 kts | 140° |
| 2026-03-24 02:02 | 39.22068 | -107.19540 | 21983 ft | 441 kts | 147° |
| 2026-03-24 02:03 | 39.19426 | -107.17537 | 22425 ft | 440 kts | 160° |
| 2026-03-24 02:03 | 39.16536 | -107.16287 | 22881 ft | 435 kts | 174° |
| 2026-03-24 02:03 | 39.13554 | -107.15724 | 23447 ft | 434 kts | 179° |
| 2026-03-24 02:03 | 39.10531 | -107.15260 | 23912 ft | 440 kts | 179° |
| 2026-03-24 02:04 | 39.07473 | -107.14756 | 24340 ft | 445 kts | 179° |
| 2026-03-24 02:04 | 39.04391 | -107.14221 | 24777 ft | 449 kts | 178° |
| 2026-03-24 02:04 | 39.01277 | -107.13665 | 25241 ft | 454 kts | 178° |
| 2026-03-24 02:04 | 38.98133 | -107.13098 | 25681 ft | 458 kts | 178° |
| 2026-03-24 02:05 | 38.94960 | -107.12534 | 26083 ft | 463 kts | 178° |
| 2026-03-24 02:05 | 38.91792 | -107.11977 | 26518 ft | 467 kts | 178° |
| 2026-03-24 02:05 | 38.88555 | -107.11418 | 26921 ft | 470 kts | 179° |
| 2026-03-24 02:05 | 38.85298 | -107.10860 | 27281 ft | 475 kts | 179° |
| 2026-03-24 02:06 | 38.82007 | -107.10295 | 27681 ft | 479 kts | 179° |
| 2026-03-24 02:06 | 38.78694 | -107.09724 | 28004 ft | 482 kts | 179° |
| 2026-03-24 02:06 | 38.75356 | -107.09150 | 28357 ft | 485 kts | 178° |
| 2026-03-24 02:06 | 38.71995 | -107.08570 | 28701 ft | 489 kts | 178° |
| 2026-03-24 02:07 | 38.68607 | -107.07987 | 29067 ft | 492 kts | 178° |
| 2026-03-24 02:07 | 38.65204 | -107.07402 | 29578 ft | 495 kts | 178° |
| 2026-03-24 02:07 | 38.61776 | -107.06814 | 29966 ft | 499 kts | 178° |
| 2026-03-24 02:07 | 38.58323 | -107.06224 | 30339 ft | 502 kts | 179° |
| 2026-03-24 02:08 | 38.54850 | -107.05631 | 30651 ft | 504 kts | 179° |
| 2026-03-24 02:08 | 38.51369 | -107.05030 | 30955 ft | 506 kts | 176° |
| 2026-03-24 02:08 | 38.47909 | -107.04012 | 31263 ft | 516 kts | 165° |
| 2026-03-24 02:08 | 38.44540 | -107.02192 | 31569 ft | 523 kts | 153° |
| 2026-03-24 02:09 | 38.41505 | -106.99695 | 31894 ft | 527 kts | 142° |
| 2026-03-24 02:09 | 38.38765 | -106.96677 | 32219 ft | 529 kts | 138° |
| 2026-03-24 02:09 | 38.36018 | -106.93561 | 32649 ft | 527 kts | 138° |
| 2026-03-24 02:09 | 38.33279 | -106.90464 | 33126 ft | 524 kts | 138° |
| 2026-03-24 02:10 | 38.30556 | -106.87393 | 33624 ft | 521 kts | 138° |
| 2026-03-24 02:10 | 38.27852 | -106.84349 | 34171 ft | 518 kts | 138° |
| 2026-03-24 02:10 | 38.25154 | -106.81317 | 34573 ft | 516 kts | 137° |
| 2026-03-24 02:10 | 38.22462 | -106.78300 | 34964 ft | 515 kts | 138° |
| 2026-03-24 02:11 | 38.19779 | -106.75298 | 35375 ft | 513 kts | 138° |
| 2026-03-24 02:11 | 38.17102 | -106.72300 | 35790 ft | 512 kts | 137° |
| 2026-03-24 02:11 | 38.14441 | -106.69317 | 36146 ft | 511 kts | 137° |
| 2026-03-24 02:11 | 38.11784 | -106.66340 | 36586 ft | 508 kts | 136° |
| 2026-03-24 02:12 | 38.09138 | -106.63379 | 36983 ft | 506 kts | 136° |
| 2026-03-24 02:12 | 38.06500 | -106.60429 | 37106 ft | 504 kts | 136° |
| 2026-03-24 02:12 | 38.01305 | -106.54635 | 37116 ft | 498 kts | 136° |
| 2026-03-24 02:13 | 37.96106 | -106.48849 | 37158 ft | 497 kts | 136° |
| 2026-03-24 02:13 | 37.90909 | -106.43075 | 37187 ft | 497 kts | 136° |
| 2026-03-24 02:14 | 37.85711 | -106.37305 | 37222 ft | 496 kts | 136° |
| 2026-03-24 02:14 | 37.80512 | -106.31544 | 37261 ft | 497 kts | 137° |
| 2026-03-24 02:15 | 37.75293 | -106.25775 | 37217 ft | 499 kts | 137° |
| 2026-03-24 02:15 | 37.70055 | -106.19999 | 37208 ft | 500 kts | 137° |
| 2026-03-24 02:16 | 37.64833 | -106.14260 | 37181 ft | 501 kts | 137° |
| 2026-03-24 02:16 | 37.59577 | -106.08488 | 37149 ft | 501 kts | 137° |
| 2026-03-24 02:17 | 37.54319 | -106.02725 | 37085 ft | 501 kts | 137° |
| 2026-03-24 02:17 | 37.49050 | -105.96966 | 37079 ft | 501 kts | 137° |
| 2026-03-24 02:18 | 37.43767 | -105.91198 | 37220 ft | 503 kts | 137° |
| 2026-03-24 02:18 | 37.38470 | -105.85423 | 37218 ft | 504 kts | 137° |
| 2026-03-24 02:19 | 37.33727 | -105.78992 | 37205 ft | 498 kts | 120° |
| 2026-03-24 02:19 | 37.30117 | -105.71602 | 37171 ft | 496 kts | 116° |
| 2026-03-24 02:20 | 37.26556 | -105.64235 | 37145 ft | 497 kts | 117° |
| 2026-03-24 02:20 | 37.22936 | -105.56803 | 37081 ft | 500 kts | 117° |
| 2026-03-24 02:21 | 37.19291 | -105.49353 | 37066 ft | 501 kts | 117° |
| 2026-03-24 02:21 | 37.15642 | -105.41885 | 37082 ft | 502 kts | 117° |
| 2026-03-24 02:22 | 37.11994 | -105.34415 | 37093 ft | 502 kts | 117° |
| 2026-03-24 02:22 | 37.08335 | -105.26960 | 37109 ft | 503 kts | 116° |
| 2026-03-24 02:23 | 37.04674 | -105.19504 | 37095 ft | 502 kts | 116° |
| 2026-03-24 02:23 | 37.01026 | -105.12103 | 37107 ft | 502 kts | 117° |
| 2026-03-24 02:24 | 36.97351 | -105.04668 | 37073 ft | 502 kts | 117° |
| 2026-03-24 02:24 | 36.93689 | -104.97257 | 37111 ft | 500 kts | 117° |
| 2026-03-24 02:25 | 36.90029 | -104.89879 | 37108 ft | 499 kts | 117° |
| 2026-03-24 02:25 | 36.86369 | -104.82499 | 37119 ft | 500 kts | 116° |
| 2026-03-24 02:26 | 36.82704 | -104.75125 | 37137 ft | 500 kts | 117° |
| 2026-03-24 02:27 | 36.77182 | -104.64079 | 37183 ft | 499 kts | 117° |
| 2026-03-24 02:27 | 36.73522 | -104.56789 | 37210 ft | 499 kts | 117° |
| 2026-03-24 02:28 | 36.69848 | -104.49466 | 37215 ft | 498 kts | 117° |
| 2026-03-24 02:28 | 36.66177 | -104.42153 | 37210 ft | 497 kts | 117° |
| 2026-03-24 02:29 | 36.62506 | -104.34857 | 37185 ft | 497 kts | 117° |
| 2026-03-24 02:29 | 36.58830 | -104.27570 | 37155 ft | 496 kts | 117° |
| 2026-03-24 02:30 | 36.55142 | -104.20310 | 37142 ft | 495 kts | 117° |
| 2026-03-24 02:30 | 36.51479 | -104.13106 | 37117 ft | 496 kts | 117° |
| 2026-03-24 02:31 | 36.47794 | -104.05835 | 37122 ft | 497 kts | 117° |
| 2026-03-24 02:31 | 36.44705 | -103.99746 | 37122 ft | 497 kts | 117° |
| 2026-03-24 02:32 | 36.41000 | -103.92485 | 37108 ft | 497 kts | 118° |
| 2026-03-24 02:32 | 36.37309 | -103.85298 | 37167 ft | 496 kts | 118° |
| 2026-03-24 02:33 | 36.33608 | -103.78083 | 37114 ft | 495 kts | 118° |
| 2026-03-24 02:33 | 36.29913 | -103.70877 | 37108 ft | 495 kts | 118° |
| 2026-03-24 02:34 | 36.26203 | -103.63668 | 37112 ft | 496 kts | 118° |
| 2026-03-24 02:34 | 36.22484 | -103.56460 | 37115 ft | 497 kts | 118° |
| 2026-03-24 02:35 | 36.18764 | -103.49254 | 37145 ft | 496 kts | 119° |
| 2026-03-24 02:35 | 36.15427 | -103.42809 | 37140 ft | 496 kts | 119° |